createdAt,value
2019-04-03T00:02:44.098Z,99899.08
2019-04-03T00:07:46.804Z,99897.45
2019-04-03T00:12:49.505Z,99891.19
2019-04-03T00:17:52.207Z,99896.20
2019-04-03T00:22:54.929Z,99899.34
2019-04-03T00:27:57.661Z,99891.72
2019-04-03T00:33:00.365Z,99886.95
2019-04-03T00:38:03.066Z,99894.92
2019-04-03T00:43:05.755Z,99906.60
2019-04-03T00:48:08.441Z,99904.66
2019-04-03T00:53:11.139Z,99906.83
2019-04-03T00:58:37.320Z,99907.82
2019-04-03T01:03:47.306Z,99902.02
2019-04-03T01:08:50.001Z,99910.12
2019-04-03T01:13:52.712Z,99921.33
2019-04-03T01:18:55.413Z,99922.31
2019-04-03T01:23:58.118Z,99925.61
2019-04-03T01:29:00.824Z,99913.98
2019-04-03T01:34:03.609Z,99902.50
2019-04-03T01:39:06.939Z,99908.97
2019-04-03T01:44:09.752Z,99895.25
2019-04-03T01:49:13.491Z,99891.77
2019-04-03T01:54:16.265Z,99885.02
2019-04-03T01:59:18.991Z,99874.98
2019-04-03T02:04:21.764Z,99875.75
2019-04-03T02:09:25.631Z,99869.56
2019-04-03T02:14:28.405Z,99877.98
2019-04-03T02:19:31.099Z,99870.62
2019-04-03T02:24:33.857Z,99867.84
2019-04-03T02:29:37.971Z,99864.45
2019-04-03T02:34:41.297Z,99861.30
2019-04-03T02:39:44.005Z,99850.03
2019-04-03T02:44:48.370Z,99840.86
2019-04-03T02:49:51.375Z,99841.63
2019-04-03T02:54:54.096Z,99839.42
2019-04-03T02:59:58.777Z,99834.31
2019-04-03T03:05:02.258Z,99832.70
2019-04-03T03:10:05.977Z,99830.23
2019-04-03T03:15:11.934Z,99830.00
2019-04-03T03:20:17.699Z,99830.17
2019-04-03T03:25:20.502Z,99836.48
2019-04-03T03:30:42.711Z,99838.11
2019-04-03T03:35:34.709Z,99832.87
2019-04-03T03:40:35.371Z,99836.84
2019-04-03T03:45:38.307Z,99836.05
2019-04-03T03:50:41.576Z,99833.86
2019-04-03T03:55:45.033Z,99842.00
2019-04-03T04:00:51.670Z,99837.48
2019-04-03T04:05:55.602Z,99831.73
2019-04-03T04:11:00.444Z,99833.47
2019-04-03T04:16:04.835Z,99835.16
2019-04-03T04:21:10.790Z,99836.41
2019-04-03T04:26:13.163Z,99841.08
2019-04-03T04:31:16.082Z,99846.34
2019-04-03T04:36:18.907Z,99837.80
2019-04-03T04:41:22.099Z,99834.19
2019-04-03T04:46:24.910Z,99837.72
2019-04-03T04:51:27.689Z,99834.11
2019-04-03T04:56:30.385Z,99840.42
2019-04-03T05:01:33.506Z,99841.36
2019-04-03T05:06:36.764Z,99849.27
2019-04-03T05:11:39.503Z,99841.27
2019-04-03T05:16:42.261Z,99845.48
2019-04-03T05:21:44.955Z,99836.48
2019-04-03T05:26:47.656Z,99839.72
2019-04-03T05:31:50.416Z,99855.13
2019-04-03T05:36:53.112Z,99856.30
2019-04-03T05:41:58.600Z,99866.62
2019-04-03T05:47:00.618Z,99878.03
2019-04-03T05:52:04.608Z,99865.30
2019-04-03T05:57:07.552Z,99870.39
2019-04-03T06:02:16.116Z,99869.16
2019-04-03T06:07:17.434Z,99869.13
2019-04-03T06:12:19.798Z,99869.08
2019-04-03T06:17:22.593Z,99872.45
2019-04-03T06:22:25.299Z,99876.19
2019-04-03T06:27:28.157Z,99874.13
2019-04-03T06:32:31.108Z,99877.44
2019-04-03T06:37:33.844Z,99875.81
2019-04-03T06:42:36.535Z,99870.55
2019-04-03T06:47:39.239Z,99867.59
2019-04-03T06:52:42.074Z,99860.11
2019-04-03T06:57:44.783Z,99855.38
2019-04-03T07:02:47.671Z,99871.20
2019-04-03T07:07:50.397Z,99869.33
2019-04-03T07:12:53.083Z,99874.13
2019-04-03T07:17:55.773Z,99872.23
2019-04-03T07:22:59.319Z,99872.09
2019-04-03T07:28:02.186Z,99881.32
2019-04-03T07:33:05.747Z,99882.95
2019-04-03T07:38:09.113Z,99893.48
2019-04-03T07:43:11.849Z,99899.33
2019-04-03T07:48:14.537Z,99883.14
2019-04-03T07:53:17.803Z,99887.75
2019-04-03T07:58:25.020Z,99885.70
2019-04-03T08:03:26.650Z,99880.34
2019-04-03T08:08:29.377Z,99882.13
2019-04-03T08:13:32.089Z,99878.79
2019-04-03T08:18:34.787Z,99882.98
2019-04-03T08:23:37.685Z,99884.28
2019-04-03T08:28:40.422Z,99881.25
2019-04-03T08:33:43.122Z,99885.66
2019-04-03T12:28:55.871Z,99702.64
2019-04-03T12:34:04.180Z,99699.72
2019-04-03T12:39:09.613Z,99703.30
2019-04-03T12:44:12.398Z,99689.80
2019-04-03T12:49:15.076Z,99680.34
2019-04-03T12:54:20.133Z,99678.84
2019-04-03T12:59:22.689Z,99675.16
2019-04-03T13:04:26.513Z,99712.43
2019-04-03T13:09:30.192Z,99732.81
2019-04-03T13:14:33.982Z,99719.48
2019-04-03T13:19:37.583Z,99734.19
2019-04-03T13:24:40.588Z,99734.50
2019-04-03T13:29:43.636Z,99742.61
2019-04-03T13:34:46.494Z,99756.28
2019-04-03T13:39:49.412Z,99765.75
2019-04-03T13:44:52.203Z,99774.42
2019-04-03T13:49:55.303Z,99785.44
2019-04-03T13:54:59.292Z,99781.99
2019-04-03T14:00:16.692Z,99782.41
2019-04-03T14:05:07.568Z,99777.06
2019-04-03T14:10:11.206Z,99769.27
2019-04-03T14:15:13.903Z,99777.31
2019-04-03T14:20:17.651Z,99755.81
2019-04-03T14:25:22.548Z,99743.81
2019-04-03T14:30:24.955Z,99750.28
2019-04-03T14:35:47.392Z,99744.06
2019-04-03T14:40:32.427Z,99727.23
2019-04-03T14:45:36.355Z,99709.27
2019-04-03T14:50:39.783Z,99725.30
2019-04-03T14:55:48.928Z,99712.51
2019-04-03T15:00:48.613Z,99721.19
2019-04-03T15:05:51.724Z,99718.77
2019-04-03T15:10:54.553Z,99711.25
2019-04-03T15:16:00.363Z,99709.16
2019-04-03T15:21:02.036Z,99690.25
2019-04-03T15:26:04.747Z,99685.91
2019-04-03T15:31:07.731Z,99691.58
2019-04-03T15:36:10.625Z,99678.86
2019-04-03T15:41:13.320Z,99673.48
2019-04-03T15:46:16.225Z,99698.91
2019-04-03T15:51:19.340Z,99696.67
2019-04-03T15:56:22.411Z,99687.49
2019-04-03T16:01:25.470Z,99676.23
2019-04-03T16:06:28.357Z,99672.22
2019-04-03T16:11:31.324Z,99666.14
2019-04-03T16:16:34.103Z,99655.20
2019-04-03T16:21:37.046Z,99662.58
2019-04-03T16:26:40.248Z,99662.10
2019-04-03T16:31:43.388Z,99670.07
2019-04-03T16:36:49.164Z,99660.44
2019-04-03T16:41:50.905Z,99686.61
2019-04-03T16:46:53.685Z,99701.27
2019-04-03T16:51:56.377Z,99717.21
2019-04-03T16:57:00.413Z,99726.31
2019-04-03T17:02:04.187Z,99712.36
2019-04-03T17:07:06.893Z,99705.21
2019-04-03T17:12:09.670Z,99713.25
2019-04-03T17:17:14.056Z,99705.23
2019-04-03T17:22:17.025Z,99701.00
2019-04-03T17:27:19.859Z,99695.80
2019-04-03T17:32:22.630Z,99689.14
2019-04-03T17:37:27.107Z,99677.60
2019-04-03T17:42:30.591Z,99678.09
2019-04-03T17:47:33.291Z,99683.45
2019-04-03T17:52:36.915Z,99694.53
2019-04-03T17:57:40.131Z,99687.70
2019-04-03T18:02:42.903Z,99683.64
2019-04-03T18:07:45.593Z,99677.95
2019-04-03T18:12:50.246Z,99673.11
2019-04-03T18:17:53.113Z,99683.39
2019-04-03T18:22:55.842Z,99677.04
2019-04-03T18:27:58.615Z,99661.94
2019-04-03T18:33:01.308Z,99653.31
2019-04-03T18:38:04.003Z,99660.56
2019-04-03T18:43:06.708Z,99643.44
2019-04-03T18:48:09.446Z,99634.50
2019-04-03T18:53:12.149Z,99645.64
2019-04-03T18:58:14.905Z,99654.78
2019-04-03T19:03:17.612Z,99633.85
2019-04-03T19:08:20.291Z,99644.07
2019-04-03T19:13:23.036Z,99636.78
2019-04-03T19:18:25.732Z,99594.78
2019-04-03T19:23:28.427Z,99575.13
2019-04-03T19:28:31.114Z,99575.95
2019-04-03T19:33:33.922Z,99575.33
2019-04-03T19:38:36.666Z,99574.14
2019-04-03T19:43:39.353Z,99593.94
2019-04-03T19:48:42.059Z,99591.44
2019-04-03T19:53:49.289Z,99590.94
2019-04-03T19:58:49.371Z,99581.77
2019-04-03T20:03:52.083Z,99599.90
2019-04-03T20:08:54.775Z,99603.10
2019-04-03T20:13:57.464Z,99629.85
2019-04-03T20:19:00.147Z,99671.58
2019-04-03T20:24:02.850Z,99702.14
2019-04-03T20:29:05.534Z,99717.36
2019-04-03T20:34:08.228Z,99726.41
2019-04-03T20:39:10.927Z,99750.27
2019-04-03T20:44:16.674Z,99750.94
2019-04-03T20:49:18.221Z,99737.13
2019-04-03T20:54:21.347Z,99717.06
2019-04-03T20:59:24.726Z,99746.58
2019-04-03T21:04:27.439Z,99741.69
2019-04-03T21:09:30.588Z,99738.77
2019-04-03T21:14:33.416Z,99705.33
2019-04-03T21:19:36.118Z,99711.94
2019-04-03T21:24:38.919Z,99691.63
2019-04-03T21:29:41.622Z,99685.61
2019-04-03T21:34:44.502Z,99693.30
2019-04-03T21:39:47.187Z,99731.80
2019-04-03T21:44:49.874Z,99749.76
2019-04-03T21:49:52.573Z,99761.40
2019-04-03T21:54:55.270Z,99743.03
2019-04-03T21:59:57.976Z,99735.11
2019-04-03T22:05:00.658Z,99731.91
2019-04-03T22:10:04.325Z,99736.83
2019-04-03T22:15:07.313Z,99724.98
2019-04-03T22:20:10.495Z,99711.81
2019-04-03T22:25:13.194Z,99712.92
2019-04-03T22:30:15.866Z,99699.52
2019-04-03T22:35:18.559Z,99686.38
2019-04-03T22:40:21.243Z,99676.97
2019-04-03T22:45:23.920Z,99684.38
2019-04-03T22:50:26.614Z,99666.81
2019-04-03T22:55:29.287Z,99678.83
2019-04-03T23:00:32.120Z,99670.58
2019-04-03T23:05:34.972Z,99637.39
2019-04-03T23:10:37.744Z,99700.80
2019-04-03T23:15:40.443Z,99692.28
2019-04-03T23:20:43.154Z,99672.23
2019-04-03T23:25:45.843Z,99688.36
2019-04-03T23:30:49.002Z,99680.73
2019-04-03T23:35:51.689Z,99661.30
2019-04-03T23:40:54.369Z,99693.95
2019-04-03T23:45:57.061Z,99700.25
2019-04-03T23:50:59.748Z,99678.56
2019-04-03T23:56:02.432Z,99692.77
